Tefft, Indiana
Current Conditions -  °F | °C
As of 8:09 AM on Thursday 29 Jan 2015 (Local Time) from KVPZ Reporting Station
Broken Clouds Broken Clouds  
Wind Chill: 30°   Ceiling: 6500
Heat Index: 35°   Visibility: 10mi
Dew Point: 29°   Wind: 6mph
Humidity: 78%   Direction: 290°WNW
Pressure: 29.73"   Gusts: NA
Location:  41.2°N, 86.97°W
Report Text: KVPZ 291409Z AUTO 29005KT 10SM SCT025 SCT031 BKN065 02/M02 A2973 RMK AO2 T00171017 TSNO
Loading
Personal Weather Stations






























Interactive Weather Map New forecast layout! Learn more

10-Day Weather Forecast

Advertisements
Track Severe Weather on mobile